Impacts METAR Board INFO
IDs:

KMKT - Mankato Rgnl, MN, US

Updated at: 2037 UTC 22 Feb 2018
Potential Impact None Slight Moderate High
Time22/08Z 22/09Z 22/10Z 22/11Z 22/12Z 22/13Z 22/14Z 22/15Z 22/16Z 22/17Z 22/18Z 22/19Z 22/20Z
VIS10 10 10 10 10 10 5 10 9 10 10 10 10
CIG-- -- 100 110 30 24 20 12 41 12 55 65 60
CoverFEWFEWOVCBKNOVCOVCOVCOVCOVCOVCOVCOVCOVC
FltCatVFRVFRVFRVFRMVFRMVFRMVFRMVFRVFRMVFRVFRVFRVFR
WX-----------SN-SN---SN--------
WDir70501101008080808090608010090
WSpd4 6 7 5 6 7 6 6 7 6 8 9 8
WGst-- -- -- -- -- -- -- -- -- -- -- -- --
Raw hourly METARs
KMKT 220756Z AUTO 07004KT 10SM FEW110 M13/M16 A3057 RMK AO2 SLP376 T11331156 FZRANO
KMKT 220856Z AUTO 05006KT 10SM FEW100 M13/M15 A3056 RMK AO2 SLP374 T11281150 56012 FZRANO
KMKT 220956Z AUTO 11007KT 10SM OVC100 M12/M14 A3057 RMK AO2 SLP377 T11171144 FZRANO
KMKT 221056Z AUTO 10005KT 10SM BKN110 M11/M14 A3056 RMK AO2 SLP373 T11061139 FZRANO
KMKT 221156Z AUTO 08006KT 10SM BKN030 OVC036 M09/M13 A3056 RMK AO2 SLP374 T10941133 11094 21139 50000 FZRANO
KMKT 221256Z AUTO 08007KT 10SM -SN OVC024 M09/M12 A3054 RMK AO2 SNB54 SLP366 P0000 T10891122 FZRANO
KMKT 221356Z AUTO 08006KT 5SM -SN OVC020 M08/M11 A3054 RMK AO2 SLP365 P0000 T10831111 FZRANO
KMKT 221456Z AUTO 08006KT 10SM OVC012 M08/M11 A3054 RMK AO2 SNE45 SLP365 P0000 60000 T10781111 55008 FZRANO
KMKT 221605Z AUTO 09007KT 9SM -SN SCT012 BKN041 OVC048 M06/M10 A3052 RMK AO2 P0000 FZRANO
KMKT 221656Z AUTO 06006KT 10SM BKN012 OVC095 M04/M08 A3051 RMK AO2 SNE48 SLP354 P0000 T10391083 FZRANO
KMKT 221756Z AUTO 08008KT 10SM OVC055 M03/M07 A3048 RMK AO2 SLP344 60000 T10331072 11033 21094 58019 FZRANO
KMKT 221856Z AUTO 10009KT 10SM OVC065 M03/M07 A3044 RMK AO2 SLP331 T10281072 FZRANO
KMKT 221956Z AUTO 09008KT 10SM OVC060 M02/M06 A3041 RMK AO2 SNB31E43 SLP319 P0000 T10221061 FZRANO